createdAt,value
2019-03-20T00:01:52.604Z,101781.75
2019-03-20T00:04:23.780Z,101766.34
2019-03-20T00:06:55.957Z,101774.34
2019-03-20T00:09:26.993Z,101774.34
2019-03-20T00:11:58.141Z,101772.71
2019-03-20T00:14:29.280Z,101772.71
2019-03-20T00:17:00.329Z,101774.80
2019-03-20T00:19:31.473Z,101772.11
2019-03-20T00:22:02.598Z,101768.74
2019-03-20T00:24:33.758Z,101766.94
2019-03-20T00:27:04.864Z,101766.05
2019-03-20T00:29:36.048Z,101763.36
2019-03-20T00:32:07.186Z,101766.63
2019-03-20T00:34:39.353Z,101761.52
2019-03-20T00:37:10.567Z,101764.78
2019-03-20T00:39:41.652Z,101760.36
2019-03-20T00:42:12.772Z,101755.26
2019-03-20T00:44:44.652Z,101754.55
2019-03-20T00:47:15.785Z,101760.71
2019-03-20T00:49:46.946Z,101758.02
2019-03-20T00:52:17.974Z,101755.15
2019-03-20T00:54:49.019Z,101752.35
2019-03-20T00:57:20.158Z,101748.16
2019-03-20T00:59:51.303Z,101755.67
2019-03-20T01:02:22.448Z,101752.26
2019-03-20T01:04:53.594Z,101756.89
2019-03-20T01:07:25.728Z,101764.45
2019-03-20T01:09:56.798Z,101757.91
2019-03-20T01:12:27.943Z,101753.36
2019-03-20T01:14:59.007Z,101762.67
2019-03-20T01:17:30.043Z,101762.67
2019-03-20T01:20:01.069Z,101768.05
2019-03-20T01:22:33.238Z,101764.73
2019-03-20T01:25:06.459Z,101766.14
2019-03-20T01:27:37.462Z,101768.27
2019-03-20T01:30:13.031Z,101758.28
2019-03-20T01:32:44.158Z,101766.13
2019-03-20T01:35:23.553Z,101758.05
2019-03-20T01:37:47.914Z,101754.69
2019-03-20T01:40:18.972Z,101749.36
2019-03-20T01:42:50.080Z,101752.92
2019-03-20T01:45:21.083Z,101758.10
2019-03-20T01:47:52.267Z,101754.66
2019-03-20T01:50:23.445Z,101750.99
2019-03-20T01:52:54.431Z,101759.13
2019-03-20T01:55:25.529Z,101760.34
2019-03-20T01:57:56.625Z,101754.21
2019-03-20T02:00:27.739Z,101753.70
2019-03-20T02:02:58.812Z,101759.34
2019-03-20T02:05:35.784Z,101762.92
2019-03-20T02:08:03.665Z,101758.40
2019-03-20T02:10:34.829Z,101751.51
2019-03-20T02:13:05.844Z,101753.31
2019-03-20T02:15:39.114Z,101756.52
2019-03-20T02:18:09.908Z,101764.30
2019-03-20T02:20:41.055Z,101765.16
2019-03-20T02:23:12.164Z,101759.39
2019-03-20T02:25:43.177Z,101761.69
2019-03-20T02:28:14.254Z,101757.59
2019-03-20T02:30:45.340Z,101754.09
2019-03-20T02:33:16.502Z,101754.80
2019-03-20T02:35:51.970Z,101761.75
2019-03-20T02:38:20.178Z,101763.52
2019-03-20T02:40:51.206Z,101771.73
2019-03-20T02:43:22.181Z,101768.13
2019-03-20T02:45:53.192Z,101766.25
2019-03-20T02:48:24.441Z,101776.09
2019-03-20T02:50:55.474Z,101776.95
2019-03-20T02:53:26.621Z,101777.69
2019-03-20T02:55:57.669Z,101778.78
2019-03-20T02:58:29.815Z,101776.00
2019-03-20T03:01:00.856Z,101781.27
2019-03-20T03:03:33.035Z,101776.83
2019-03-20T03:06:07.033Z,101775.42
2019-03-20T03:08:37.887Z,101778.05
2019-03-20T03:11:08.861Z,101782.19
2019-03-20T03:13:39.961Z,101780.55
2019-03-20T03:16:11.008Z,101787.25
2019-03-20T03:18:42.104Z,101790.73
2019-03-20T03:21:13.185Z,101784.47
2019-03-20T03:23:44.197Z,101789.17
2019-03-20T03:26:15.267Z,101784.84
2019-03-20T03:28:46.470Z,101790.38
2019-03-20T03:31:17.556Z,101793.75
2019-03-20T03:33:48.645Z,101793.85
2019-03-20T03:36:21.601Z,101794.95
2019-03-20T03:38:52.525Z,101795.76
2019-03-20T03:41:24.693Z,101804.55
2019-03-20T03:43:55.854Z,101802.96
2019-03-20T03:46:27.978Z,101800.68
2019-03-20T03:48:59.246Z,101803.05
2019-03-20T03:51:30.240Z,101807.89
2019-03-20T03:54:01.392Z,101808.49
2019-03-20T03:56:32.482Z,101808.67
2019-03-20T03:59:03.569Z,101804.80
2019-03-20T04:01:34.561Z,101817.28
2019-03-20T04:04:05.650Z,101818.02
2019-03-20T04:06:36.850Z,101816.48
2019-03-20T04:09:07.928Z,101815.64
2019-03-20T04:11:38.903Z,101819.51
2019-03-20T04:14:10.020Z,101812.55
2019-03-20T04:16:41.393Z,101819.50
2019-03-20T04:19:12.632Z,101816.58
2019-03-20T04:21:43.722Z,101817.67
2019-03-20T04:24:14.897Z,101824.78
2019-03-20T04:26:45.909Z,101825.03
2019-03-20T04:29:17.003Z,101827.96
2019-03-20T04:31:48.084Z,101835.43
2019-03-20T04:34:19.173Z,101827.02
2019-03-20T04:36:50.233Z,101823.29
2019-03-20T04:39:21.257Z,101824.84
2019-03-20T04:41:52.240Z,101819.20
2019-03-20T04:44:23.225Z,101827.73
2019-03-20T04:46:54.431Z,101829.83
2019-03-20T04:49:25.643Z,101830.57
2019-03-20T04:51:56.736Z,101831.94
2019-03-20T04:54:27.982Z,101830.31
2019-03-20T04:56:59.027Z,101839.77
2019-03-20T04:59:30.099Z,101840.12
2019-03-20T05:02:01.199Z,101838.86
2019-03-20T05:04:33.430Z,101836.50
2019-03-20T05:07:04.526Z,101837.18
2019-03-20T05:09:35.704Z,101838.38
2019-03-20T05:12:06.724Z,101841.14
2019-03-20T05:14:37.890Z,101840.66
2019-03-20T05:17:08.955Z,101850.14
2019-03-20T05:19:40.247Z,101849.98
2019-03-20T05:22:11.376Z,101849.92
2019-03-20T05:24:42.465Z,101858.86
2019-03-20T05:27:13.560Z,101855.81
2019-03-20T05:29:44.757Z,101857.06
2019-03-20T05:32:15.860Z,101854.61
2019-03-20T05:34:47.043Z,101854.31
2019-03-20T05:37:18.137Z,101854.16
2019-03-20T05:39:49.298Z,101860.03
2019-03-20T05:42:20.332Z,101862.91
2019-03-20T05:44:51.414Z,101860.13
2019-03-20T05:47:22.557Z,101855.82
2019-03-20T05:49:53.801Z,101854.63
2019-03-20T05:52:25.161Z,101861.44
2019-03-20T05:54:56.358Z,101869.52
2019-03-20T05:57:27.450Z,101863.41
2019-03-20T05:59:59.540Z,101862.99
2019-03-20T06:02:30.673Z,101869.72
2019-03-20T06:05:01.733Z,101867.97
2019-03-20T06:07:32.888Z,101864.81
2019-03-20T06:10:09.590Z,101868.10
2019-03-20T06:12:40.724Z,101867.57
2019-03-20T06:15:11.808Z,101868.42
2019-03-20T06:17:42.902Z,101869.61
2019-03-20T06:20:14.976Z,101875.70
2019-03-20T06:22:46.120Z,101867.78
2019-03-20T06:25:17.559Z,101872.73
2019-03-20T06:27:50.005Z,101867.95
2019-03-20T06:30:21.786Z,101864.25
2019-03-20T06:32:52.874Z,101869.72
2019-03-20T06:35:23.865Z,101864.50
2019-03-20T06:37:55.137Z,101870.28
2019-03-20T06:40:26.133Z,101868.58
2019-03-20T06:42:57.244Z,101863.11
2019-03-20T06:45:28.902Z,101866.41
2019-03-20T06:48:00.106Z,101861.80
2019-03-20T06:50:31.346Z,101865.12
2019-03-20T06:53:02.426Z,101864.80
2019-03-20T06:55:34.602Z,101862.30
2019-03-20T06:58:05.801Z,101859.98
2019-03-20T07:00:45.621Z,101866.20
2019-03-20T07:03:37.923Z,101866.95
2019-03-20T07:06:18.041Z,101864.54
2019-03-20T07:08:58.453Z,101872.21
2019-03-20T07:11:28.606Z,101872.17
2019-03-20T07:13:59.715Z,101868.48
2019-03-20T07:16:30.818Z,101880.06
2019-03-20T07:19:01.823Z,101874.05
2019-03-20T07:21:32.830Z,101883.63
2019-03-20T07:24:03.858Z,101880.74
2019-03-20T07:26:34.992Z,101879.50
2019-03-20T07:29:06.047Z,101879.57
2019-03-20T07:31:37.009Z,101885.48
2019-03-20T07:34:08.106Z,101876.48
2019-03-20T07:36:39.360Z,101886.33
2019-03-20T07:39:10.447Z,101876.16
2019-03-20T07:41:41.560Z,101879.17
2019-03-20T07:44:12.663Z,101877.05
2019-03-20T07:46:43.647Z,101871.13
2019-03-20T07:49:14.668Z,101871.22
2019-03-20T07:51:45.824Z,101873.50
2019-03-20T07:54:16.874Z,101869.64
2019-03-20T07:56:47.995Z,101871.19
2019-03-20T07:59:19.082Z,101865.47
2019-03-20T08:01:50.126Z,101863.73
2019-03-20T08:04:21.436Z,101865.37
2019-03-20T08:06:52.842Z,101863.97
2019-03-20T08:09:25.651Z,101864.99
2019-03-20T08:11:56.745Z,101866.67
2019-03-20T08:14:27.770Z,101858.84
2019-03-20T08:16:58.741Z,101859.28
2019-03-20T08:19:29.708Z,101860.50
2019-03-20T08:22:00.759Z,101859.54
2019-03-20T08:24:32.308Z,101854.18
2019-03-20T08:27:03.369Z,101846.95
2019-03-20T08:29:34.454Z,101841.11
2019-03-20T08:32:05.490Z,101847.66
2019-03-20T08:34:36.630Z,101849.42
2019-03-20T08:37:07.735Z,101847.20
2019-03-20T08:39:38.814Z,101843.52
2019-03-20T08:42:09.922Z,101844.63
2019-03-20T08:44:41.049Z,101844.50
2019-03-20T08:47:12.083Z,101850.52
2019-03-20T08:49:43.378Z,101847.18
2019-03-20T08:52:14.446Z,101843.20
2019-03-20T08:54:45.503Z,101839.39
2019-03-20T08:57:16.685Z,101844.39
2019-03-20T08:59:47.857Z,101843.86
2019-03-20T09:02:18.888Z,101845.02
2019-03-20T09:04:50.019Z,101852.12
2019-03-20T09:07:21.058Z,101841.30
2019-03-20T09:09:52.424Z,101842.95
2019-03-20T09:12:23.605Z,101830.53
2019-03-20T09:14:54.786Z,101833.93
2019-03-20T09:17:25.826Z,101809.09
2019-03-20T09:19:56.977Z,101835.08
2019-03-20T09:22:28.104Z,101843.64
2019-03-20T09:24:59.149Z,101837.98
2019-03-20T09:27:30.317Z,101848.61
2019-03-20T09:30:01.443Z,101839.44
2019-03-20T09:32:32.494Z,101836.20
2019-03-20T09:35:06.862Z,101826.60
2019-03-20T09:37:36.939Z,101830.95
2019-03-20T09:40:24.828Z,101832.16
2019-03-20T09:42:56.016Z,101834.99
2019-03-20T09:45:27.126Z,101837.23
2019-03-20T09:47:58.407Z,101834.20
2019-03-20T09:50:29.812Z,101827.96
2019-03-20T09:53:00.867Z,101826.67
2019-03-20T09:55:32.034Z,101825.08
2019-03-20T09:58:11.191Z,101825.75
2019-03-20T10:00:35.943Z,101830.13
2019-03-20T10:03:07.110Z,101831.36
2019-03-20T10:05:38.266Z,101827.45
2019-03-20T10:08:09.317Z,101832.66
2019-03-20T10:10:40.354Z,101831.27
2019-03-20T10:13:11.475Z,101824.59
2019-03-20T10:15:42.496Z,101824.33
2019-03-20T10:18:13.604Z,101831.65
2019-03-20T10:20:44.749Z,101831.86
2019-03-20T10:23:16.120Z,101826.89
2019-03-20T10:25:47.248Z,101821.77
2019-03-20T10:28:18.327Z,101822.23
2019-03-20T10:30:49.370Z,101820.84
2019-03-20T10:33:20.526Z,101819.30
2019-03-20T10:35:51.682Z,101806.67
2019-03-20T10:38:22.698Z,101810.69
2019-03-20T10:40:53.782Z,101807.28
2019-03-20T10:43:24.892Z,101803.02
2019-03-20T10:45:55.973Z,101804.50
2019-03-20T10:48:27.178Z,101802.06
2019-03-20T10:50:58.248Z,101798.16
2019-03-20T10:53:29.369Z,101794.33
2019-03-20T10:56:00.876Z,101792.36
2019-03-20T10:58:31.991Z,101792.36
2019-03-20T11:01:03.130Z,101785.44
2019-03-20T11:03:35.298Z,101787.17
2019-03-20T11:06:06.466Z,101787.17
2019-03-20T11:08:37.569Z,101784.33
2019-03-20T11:11:08.657Z,101786.56
2019-03-20T11:13:39.748Z,101787.45
2019-03-20T11:16:10.925Z,101784.62
2019-03-20T11:18:42.126Z,101784.72
2019-03-20T11:21:13.296Z,101781.40
2019-03-20T11:23:44.433Z,101779.05
2019-03-20T11:26:15.541Z,101776.66
2019-03-20T11:28:46.621Z,101778.87
2019-03-20T11:31:17.672Z,101768.63
2019-03-20T11:33:48.668Z,101770.30
2019-03-20T11:36:19.663Z,101765.39
2019-03-20T11:38:50.723Z,101761.10
2019-03-20T11:41:21.831Z,101761.70
2019-03-20T11:43:52.940Z,101757.73
2019-03-20T11:46:24.402Z,101755.98
2019-03-20T11:48:55.390Z,101745.84
2019-03-20T11:51:26.450Z,101745.12
2019-03-20T11:53:57.557Z,101738.73
2019-03-20T11:56:29.004Z,101740.41
2019-03-20T11:59:00.061Z,101742.84
2019-03-20T12:01:31.254Z,101741.30
2019-03-20T12:04:02.317Z,101739.33
2019-03-20T12:06:33.296Z,101744.15
2019-03-20T12:09:07.526Z,101743.45
2019-03-20T12:11:45.739Z,101736.41
2019-03-20T12:14:11.540Z,101735.60
2019-03-20T12:16:42.594Z,101731.09
2019-03-20T12:19:13.772Z,101727.25
2019-03-20T12:21:44.937Z,101727.03
2019-03-20T12:24:16.083Z,101728.36
2019-03-20T12:26:47.275Z,101724.80
2019-03-20T12:29:18.367Z,101722.48
2019-03-20T12:31:49.416Z,101722.24
2019-03-20T12:34:20.603Z,101724.34
2019-03-20T12:36:51.910Z,101720.36
2019-03-20T12:39:22.981Z,101714.64
2019-03-20T12:41:54.059Z,101717.21
2019-03-20T12:44:25.194Z,101715.13
2019-03-20T12:46:56.282Z,101714.96
2019-03-20T12:49:27.363Z,101707.97
2019-03-20T12:51:58.468Z,101708.84
2019-03-20T12:54:29.445Z,101709.55
2019-03-20T12:57:00.693Z,101708.27
2019-03-20T12:59:31.833Z,101704.08
2019-03-20T13:02:02.820Z,101704.52
2019-03-20T13:04:34.005Z,101703.97
2019-03-20T13:07:05.187Z,101710.30
2019-03-20T13:09:36.296Z,101707.22
2019-03-20T13:12:07.415Z,101707.16
2019-03-20T13:14:40.906Z,101702.59
2019-03-20T13:17:11.858Z,101695.17
2019-03-20T13:19:43.065Z,101692.56
2019-03-20T13:22:14.138Z,101694.46
2019-03-20T13:24:47.778Z,101695.45
2019-03-20T13:27:21.024Z,101688.44
2019-03-20T13:29:52.083Z,101679.91
2019-03-20T13:32:23.276Z,101678.19
2019-03-20T13:34:54.371Z,101677.37
2019-03-20T13:37:25.422Z,101671.61
2019-03-20T13:39:56.515Z,101677.09
2019-03-20T13:42:27.598Z,101671.73
2019-03-20T13:44:58.790Z,101671.53
2019-03-20T13:47:29.988Z,101668.25
2019-03-20T13:50:01.199Z,101662.81
2019-03-20T13:52:32.337Z,101662.02
2019-03-20T13:55:04.287Z,101661.08
2019-03-20T13:57:35.663Z,101666.53
2019-03-20T14:00:16.129Z,101664.84
2019-03-20T14:02:47.298Z,101665.53
2019-03-20T14:05:18.376Z,101658.00
2019-03-20T14:07:49.380Z,101661.09
2019-03-20T14:10:25.678Z,101652.50
2019-03-20T14:12:56.864Z,101657.58
2019-03-20T14:15:28.087Z,101659.77
2019-03-20T14:17:59.163Z,101650.94
2019-03-20T14:20:31.093Z,101656.31
2019-03-20T14:23:02.131Z,101653.80
2019-03-20T14:25:33.161Z,101657.30
2019-03-20T14:28:04.331Z,101659.03
2019-03-20T14:30:35.392Z,101649.72
2019-03-20T14:33:06.512Z,101655.28
2019-03-20T14:35:37.982Z,101653.64
2019-03-20T14:38:09.144Z,101660.28
2019-03-20T14:40:40.235Z,101660.14
2019-03-20T14:43:11.278Z,101658.50
2019-03-20T14:45:42.296Z,101656.20
2019-03-20T14:48:13.558Z,101658.88
2019-03-20T14:50:44.844Z,101656.39
2019-03-20T14:53:17.049Z,101652.25
2019-03-20T14:55:48.214Z,101655.23
2019-03-20T14:58:19.441Z,101655.23
2019-03-20T15:00:50.857Z,101654.61
2019-03-20T15:03:22.163Z,101660.09
2019-03-20T15:05:53.666Z,101649.40
2019-03-20T15:08:25.166Z,101652.78
2019-03-20T15:10:56.312Z,101656.67
2019-03-20T15:13:27.828Z,101664.46
2019-03-20T15:16:07.821Z,101654.62
2019-03-20T15:18:38.983Z,101664.79
2019-03-20T15:21:11.136Z,101678.13
2019-03-20T15:23:42.127Z,101686.75
2019-03-20T15:26:13.314Z,101701.53
2019-03-20T15:28:44.441Z,101699.80
2019-03-20T15:31:17.214Z,101701.27
2019-03-20T15:33:48.309Z,101713.86
2019-03-20T15:36:19.559Z,101713.50
2019-03-20T15:38:50.930Z,101715.16
2019-03-20T15:41:21.887Z,101734.28
2019-03-20T15:44:02.104Z,101731.96
2019-03-20T15:46:25.831Z,101728.65
2019-03-20T15:48:56.954Z,101729.82
2019-03-20T15:51:28.049Z,101730.92
2019-03-20T15:53:59.067Z,101731.49
2019-03-20T15:56:30.147Z,101754.23
2019-03-20T15:59:01.290Z,101752.23
2019-03-20T16:01:32.484Z,101753.27
2019-03-20T16:04:04.446Z,101755.28
2019-03-20T16:06:35.490Z,101780.36
2019-03-20T16:09:08.526Z,101776.55
2019-03-20T16:11:39.655Z,101780.91
2019-03-20T16:14:10.988Z,101769.55
2019-03-20T16:16:42.133Z,101790.89
2019-03-20T16:19:13.237Z,101787.81
2019-03-20T16:21:44.425Z,101791.78
2019-03-20T16:24:15.568Z,101790.42
2019-03-20T16:26:46.581Z,101794.50
2019-03-20T16:29:17.729Z,101807.66
2019-03-20T16:31:48.758Z,101799.63
2019-03-20T16:34:19.805Z,101811.12
2019-03-20T16:36:50.872Z,101806.30
2019-03-20T16:39:22.116Z,101805.31
2019-03-20T16:41:53.241Z,101823.94
2019-03-20T16:44:24.215Z,101820.59
2019-03-20T16:46:55.366Z,101822.27
2019-03-20T16:49:26.455Z,101818.72
2019-03-20T16:51:58.620Z,101825.99
2019-03-20T16:54:29.660Z,101830.53
2019-03-20T16:57:00.820Z,101825.63
2019-03-20T16:59:32.481Z,101834.70
2019-03-20T17:02:03.625Z,101837.40
2019-03-20T17:04:34.957Z,101837.14
2019-03-20T17:07:06.611Z,101845.61
2019-03-20T17:09:37.902Z,101854.47
2019-03-20T17:12:09.017Z,101870.72
2019-03-20T17:14:41.734Z,101869.22
2019-03-20T17:17:14.104Z,101862.28
2019-03-20T17:19:45.158Z,101862.26
2019-03-20T17:22:16.447Z,101859.55
2019-03-20T17:24:47.642Z,101857.16
2019-03-20T17:27:18.790Z,101857.83
2019-03-20T17:29:50.015Z,101870.73
2019-03-20T17:32:21.449Z,101857.45
2019-03-20T17:34:52.445Z,101856.66
2019-03-20T17:37:23.595Z,101860.63
2019-03-20T17:39:54.654Z,101864.56
2019-03-20T17:42:25.938Z,101862.80
2019-03-20T17:44:56.943Z,101879.77
2019-03-20T17:47:27.973Z,101865.90
2019-03-20T17:49:59.137Z,101862.27
2019-03-20T17:52:31.184Z,101869.75
2019-03-20T17:55:02.271Z,101871.70
2019-03-20T17:57:33.267Z,101870.47
2019-03-20T18:00:13.149Z,101877.23
2019-03-20T18:02:44.292Z,101876.81
2019-03-20T18:05:15.450Z,101886.66
2019-03-20T18:07:46.566Z,101872.28
2019-03-20T18:10:17.784Z,101869.50
2019-03-20T18:12:48.845Z,101872.48
2019-03-20T18:15:21.032Z,101878.53
2019-03-20T18:17:52.123Z,101882.20
2019-03-20T18:20:23.090Z,101887.06
2019-03-20T18:22:54.109Z,101879.06
2019-03-20T18:25:25.297Z,101880.02
2019-03-20T18:27:56.549Z,101891.67
2019-03-20T18:30:32.593Z,101891.34
2019-03-20T18:33:04.692Z,101897.66
2019-03-20T18:35:35.745Z,101899.53
2019-03-20T18:38:07.559Z,101905.52
2019-03-20T18:40:38.640Z,101904.61
2019-03-20T18:43:09.784Z,101912.77
2019-03-20T18:45:40.921Z,101914.33
2019-03-20T18:48:12.038Z,101908.22
2019-03-20T18:50:44.140Z,101904.80
2019-03-20T18:53:15.215Z,101910.31
2019-03-20T18:55:46.601Z,101917.85
2019-03-20T18:58:17.882Z,101914.45
2019-03-20T19:00:48.989Z,101918.96
2019-03-20T19:03:26.507Z,101925.50
2019-03-20T19:06:06.827Z,101925.16
2019-03-20T19:08:37.971Z,101922.53
2019-03-20T19:11:09.112Z,101916.17
2019-03-20T19:13:40.252Z,101924.27
2019-03-20T19:16:11.473Z,101935.11
2019-03-20T19:18:42.556Z,101937.08
2019-03-20T19:21:13.694Z,101933.11
2019-03-20T19:23:44.728Z,101936.61
2019-03-20T19:26:15.820Z,101940.00
2019-03-20T19:28:46.922Z,101939.13
2019-03-20T19:31:18.041Z,101928.81
2019-03-20T19:33:49.152Z,101927.69
2019-03-20T19:36:20.133Z,101915.45
2019-03-20T19:38:51.197Z,101915.45
2019-03-20T19:41:22.399Z,101920.16
2019-03-20T19:43:54.345Z,101927.69
2019-03-20T19:46:25.418Z,101927.69
2019-03-20T19:48:57.597Z,101938.48
2019-03-20T19:51:28.635Z,101926.72
2019-03-20T19:53:59.625Z,101932.81
2019-03-20T19:56:30.736Z,101939.65
2019-03-20T19:59:02.785Z,101939.66
2019-03-20T20:01:33.826Z,101939.66
2019-03-20T20:04:04.973Z,101951.63
2019-03-20T20:06:36.261Z,101947.66
2019-03-20T20:09:07.701Z,101958.09
2019-03-20T20:11:38.760Z,101941.20
2019-03-20T20:14:10.140Z,101952.77
2019-03-20T20:16:41.307Z,101948.64
2019-03-20T20:19:12.347Z,101946.03
2019-03-20T20:21:43.467Z,101950.19
2019-03-20T20:24:14.637Z,101950.19
2019-03-20T20:26:45.762Z,101955.86
2019-03-20T20:29:16.935Z,101949.78
2019-03-20T20:31:47.845Z,101962.70
2019-03-20T20:34:18.805Z,101954.72
2019-03-20T20:36:49.959Z,101961.16
2019-03-20T20:39:20.960Z,101961.16
2019-03-20T20:41:51.993Z,101956.94
2019-03-20T20:44:22.978Z,101957.80
2019-03-20T20:46:53.989Z,101944.98
2019-03-20T20:49:25.058Z,101944.20
2019-03-20T20:51:56.207Z,101944.20
2019-03-20T20:54:27.335Z,101948.91
2019-03-20T20:56:58.499Z,101948.91
2019-03-20T20:59:30.635Z,101946.79
2019-03-20T21:02:01.778Z,101939.31
2019-03-20T21:04:33.028Z,101939.31
2019-03-20T21:07:04.109Z,101948.27
2019-03-20T21:09:35.219Z,101939.38
2019-03-20T21:12:06.350Z,101934.56
2019-03-20T21:14:37.433Z,101944.00
2019-03-20T21:17:12.117Z,101944.78
2019-03-20T21:19:43.164Z,101946.03
2019-03-20T21:22:32.537Z,101946.03
2019-03-20T21:25:03.771Z,101937.75
2019-03-20T21:28:11.189Z,101938.53
2019-03-20T21:30:56.852Z,101932.95
2019-03-20T21:33:36.789Z,101937.18
2019-03-20T21:36:44.582Z,101939.40
2019-03-20T21:39:15.841Z,101946.61
2019-03-20T21:42:21.343Z,101946.61
2019-03-20T21:45:10.037Z,101940.17
2019-03-20T21:47:41.142Z,101945.49
2019-03-20T21:50:21.535Z,101943.36
2019-03-20T21:52:52.966Z,101954.73
2019-03-20T21:55:46.683Z,101950.09
2019-03-20T21:58:21.126Z,101955.48
2019-03-20T22:01:27.005Z,101949.43
2019-03-20T22:03:58.023Z,101949.43
2019-03-20T22:06:35.499Z,101952.59
2019-03-20T22:09:09.143Z,101952.59
2019-03-20T22:12:12.239Z,101949.88
2019-03-20T22:14:46.217Z,101959.25
2019-03-20T22:17:26.225Z,101956.85
2019-03-20T22:20:03.229Z,101967.52
2019-03-20T22:23:01.089Z,101971.38
2019-03-20T22:25:41.706Z,101971.38
2019-03-20T22:28:35.310Z,101971.38
2019-03-20T22:31:06.432Z,101969.46
2019-03-20T22:34:14.520Z,101983.41
2019-03-20T22:36:45.584Z,101969.05
2019-03-20T22:39:48.781Z,101971.36
2019-03-20T22:42:25.700Z,101976.10
2019-03-20T22:45:12.039Z,101976.39
2019-03-20T22:48:02.642Z,101983.41
2019-03-20T22:50:55.048Z,101987.45
2019-03-20T22:54:02.513Z,101988.03
2019-03-20T22:56:45.602Z,101984.55
2019-03-20T22:59:16.722Z,101985.05
2019-03-20T23:02:06.245Z,101981.89
2019-03-20T23:04:52.621Z,101991.58
2019-03-20T23:07:23.886Z,101991.58
2019-03-20T23:09:55.040Z,101985.12
2019-03-20T23:12:25.930Z,101985.12
2019-03-20T23:14:57.178Z,101979.91
2019-03-20T23:17:28.136Z,101982.64
2019-03-20T23:19:59.112Z,101990.73
2019-03-20T23:22:30.103Z,101980.01
2019-03-20T23:25:01.271Z,101980.01
2019-03-20T23:27:32.287Z,101982.31
2019-03-20T23:30:04.791Z,101983.48
2019-03-20T23:32:35.795Z,101959.61
2019-03-20T23:35:08.382Z,101959.61
2019-03-20T23:37:39.494Z,101967.48
2019-03-20T23:40:15.531Z,101962.70
2019-03-20T23:42:52.568Z,101960.86
2019-03-20T23:45:23.547Z,101958.44
2019-03-20T23:48:01.835Z,101958.44
2019-03-20T23:50:32.880Z,101958.44
2019-03-20T23:53:03.996Z,101958.44
2019-03-20T23:55:35.144Z,101959.12
2019-03-20T23:58:06.268Z,101948.83
